createdAt,value
2019-01-16T00:00:20.520Z,13.00
2019-01-16T00:03:19.620Z,10.13
2019-01-16T00:06:20.798Z,10.70
2019-01-16T00:09:29.436Z,11.90
2019-01-16T00:12:31.134Z,11.40
2019-01-16T00:15:35.210Z,11.43
2019-01-16T00:21:50.440Z,9.90
2019-01-16T00:24:46.022Z,12.07
2019-01-16T00:27:54.741Z,10.80
2019-01-16T00:31:03.372Z,11.40
2019-01-16T00:34:08.704Z,11.63
2019-01-16T00:37:10.161Z,10.83
2019-01-16T00:40:11.941Z,11.03
2019-01-16T00:43:18.773Z,9.30
2019-01-16T00:46:27.805Z,10.47
2019-01-16T00:49:36.531Z,9.87
2019-01-16T00:52:45.451Z,11.77
2019-01-16T00:55:54.061Z,10.40
2019-01-16T00:59:02.763Z,9.73
2019-01-16T01:02:11.481Z,12.30
2019-01-16T01:05:20.636Z,11.10
2019-01-16T01:08:29.234Z,9.87
2019-01-16T01:11:33.512Z,12.17
2019-01-16T01:14:42.180Z,11.30
2019-01-16T01:17:43.556Z,10.90
2019-01-16T01:20:52.145Z,12.20
2019-01-16T01:23:53.519Z,9.83
2019-01-16T01:27:02.509Z,10.20
2019-01-16T01:30:06.168Z,10.37
2019-01-16T01:33:15.934Z,10.77
2019-01-16T01:36:24.555Z,9.67
2019-01-16T01:39:27.007Z,11.10
2019-01-16T01:42:36.133Z,11.70
2019-01-16T01:45:45.126Z,10.77
2019-01-16T01:48:47.016Z,9.97
2019-01-16T01:55:09.767Z,10.47
2019-01-16T01:58:09.312Z,11.13
2019-01-16T02:01:13.307Z,9.77
2019-01-16T02:04:21.885Z,10.97
2019-01-16T02:07:23.005Z,14.20
2019-01-16T02:10:31.733Z,12.93
2019-01-16T02:16:24.860Z,10.30
2019-01-16T02:19:34.000Z,11.93
2019-01-16T02:34:34.741Z,9.17
2019-01-16T02:37:36.866Z,12.37
2019-01-16T02:40:45.552Z,11.87
2019-01-16T02:43:46.556Z,10.73
2019-01-16T02:47:14.839Z,11.73
2019-01-16T02:50:15.952Z,11.77
2019-01-16T02:53:24.815Z,12.20
2019-01-16T02:56:32.461Z,12.83
2019-01-16T02:59:41.460Z,12.50
2019-01-16T03:06:14.632Z,10.30
2019-01-16T03:15:27.003Z,10.67
2019-01-16T03:18:19.345Z,11.93
2019-01-16T03:21:23.480Z,9.60
2019-01-16T03:24:32.139Z,10.73
2019-01-16T03:27:41.118Z,9.17
2019-01-16T03:30:46.938Z,9.80
2019-01-16T03:33:39.778Z,8.27
2019-01-16T03:36:48.422Z,10.63
2019-01-16T03:39:57.405Z,11.10
2019-01-16T03:43:06.279Z,9.90
2019-01-16T03:46:14.972Z,9.90
2019-01-16T03:49:24.084Z,10.47
2019-01-16T03:52:48.633Z,11.23
2019-01-16T03:55:52.617Z,10.17
2019-01-16T03:59:01.758Z,11.60
2019-01-16T04:02:03.940Z,9.57
2019-01-16T04:05:13.603Z,10.13
2019-01-16T04:08:21.160Z,10.47
2019-01-16T04:11:22.432Z,11.20
2019-01-16T04:14:23.322Z,12.87
2019-01-16T04:17:32.770Z,12.10
2019-01-16T04:20:22.651Z,10.53
2019-01-16T04:23:31.657Z,11.67
2019-01-16T04:26:32.692Z,11.93
2019-01-16T04:29:42.583Z,11.43
2019-01-16T04:32:50.295Z,9.37
2019-01-16T04:35:59.440Z,9.07
2019-01-16T04:39:02.711Z,9.50
2019-01-16T04:48:02.405Z,9.40
2019-01-16T04:51:04.818Z,9.10
2019-01-16T04:54:14.489Z,9.30
2019-01-16T04:57:15.508Z,10.83
2019-01-16T05:00:45.485Z,9.87
2019-01-16T05:03:46.660Z,11.40
2019-01-16T05:06:55.990Z,10.67
2019-01-16T05:09:57.358Z,12.83
2019-01-16T05:13:05.970Z,10.27
2019-01-16T05:16:13.245Z,12.23
2019-01-16T05:19:21.904Z,13.40
2019-01-16T05:22:28.744Z,10.23
2019-01-16T05:25:37.344Z,11.77
2019-01-16T05:28:38.624Z,12.23
2019-01-16T05:31:47.481Z,8.43
2019-01-16T05:34:54.935Z,9.63
2019-01-16T05:38:03.500Z,10.40
2019-01-16T05:41:05.077Z,9.37
2019-01-16T05:44:13.656Z,9.43
2019-01-16T05:47:20.819Z,8.00
2019-01-16T05:53:20.326Z,10.20
2019-01-16T05:56:29.011Z,8.40
2019-01-16T05:59:37.771Z,9.47
2019-01-16T06:02:46.427Z,8.47
2019-01-16T06:05:55.059Z,8.10
2019-01-16T06:09:17.121Z,9.87
2019-01-16T06:12:18.548Z,6.63
2019-01-16T06:15:19.384Z,5.87
2019-01-16T06:18:47.143Z,7.37
2019-01-16T06:21:41.471Z,6.57
2019-01-16T06:24:50.073Z,7.07
2019-01-16T06:27:58.999Z,7.13
2019-01-16T06:31:08.508Z,8.37
2019-01-16T06:34:01.670Z,9.90
2019-01-16T06:37:08.540Z,9.80
2019-01-16T06:40:17.110Z,10.07
2019-01-16T06:43:18.430Z,10.80
2019-01-16T06:46:27.057Z,10.03
2019-01-16T06:49:36.781Z,10.97
2019-01-16T06:52:45.475Z,13.47
2019-01-16T06:55:51.509Z,11.73
2019-01-16T06:58:40.536Z,11.17
2019-01-16T07:01:49.176Z,13.17
2019-01-16T07:04:57.751Z,11.53
2019-01-16T07:11:17.785Z,12.03
2019-01-16T07:14:26.445Z,26.83
2019-01-16T07:17:26.937Z,30.87
2019-01-16T07:20:55.450Z,19.03
2019-01-16T07:23:46.044Z,31.67
2019-01-16T07:26:54.606Z,33.30
2019-01-16T07:29:49.560Z,37.13
2019-01-16T07:32:48.736Z,132.77
2019-01-16T07:35:50.132Z,54.13
2019-01-16T07:38:58.683Z,79.97
2019-01-16T07:42:05.942Z,212.53
2019-01-16T07:45:14.665Z,154.63
2019-01-16T07:48:05.766Z,61.67
2019-01-16T07:51:14.596Z,23.57
2019-01-16T07:54:04.344Z,19.60
2019-01-16T07:57:13.042Z,89.10
2019-01-16T08:00:14.394Z,32.10
2019-01-16T08:03:23.115Z,28.70
2019-01-16T08:06:14.506Z,21.33
2019-01-16T08:12:18.018Z,17.70
2019-01-16T08:15:23.950Z,18.23
2019-01-16T08:18:25.000Z,11.87
2019-01-16T08:21:33.662Z,13.87
2019-01-16T08:24:42.286Z,12.83
2019-01-16T08:27:45.998Z,12.10
2019-01-16T08:30:54.718Z,13.83
2019-01-16T08:34:22.437Z,10.23
2019-01-16T08:37:31.064Z,16.37
2019-01-16T08:40:39.692Z,12.37
2019-01-16T08:43:48.278Z,10.90
2019-01-16T08:46:49.366Z,12.10
2019-01-16T08:49:54.156Z,11.80
2019-01-16T08:53:04.892Z,12.67
2019-01-16T08:56:13.532Z,12.10
2019-01-16T08:59:22.162Z,12.13
2019-01-16T09:02:30.787Z,14.77
2019-01-16T09:08:27.946Z,31.27
2019-01-16T09:11:36.597Z,30.43
2019-01-16T09:14:41.397Z,20.17
2019-01-16T09:17:36.166Z,15.43
2019-01-16T09:20:44.720Z,14.93
2019-01-16T09:23:47.172Z,14.27
2019-01-16T09:27:14.896Z,14.17
2019-01-16T09:30:15.765Z,12.30
2019-01-16T09:33:24.464Z,11.20
2019-01-16T09:36:30.951Z,11.07
2019-01-16T09:39:32.811Z,9.90
2019-01-16T09:42:36.823Z,9.57
2019-01-16T09:45:45.477Z,9.40
2019-01-16T09:48:54.499Z,8.80
2019-01-16T09:52:03.144Z,10.57
2019-01-16T09:55:11.697Z,8.83
2019-01-16T09:58:19.231Z,10.23
2019-01-16T10:01:27.767Z,12.97
2019-01-16T10:04:36.359Z,13.33
2019-01-16T10:07:38.101Z,14.20
2019-01-16T10:10:46.737Z,14.00
2019-01-16T10:13:45.188Z,14.90
2019-01-16T10:16:46.473Z,15.20
2019-01-16T10:19:47.816Z,15.30
2019-01-16T10:22:56.465Z,16.33
2019-01-16T10:26:05.075Z,17.83
2019-01-16T10:29:06.267Z,14.80
2019-01-16T10:32:14.960Z,16.80
2019-01-16T10:35:24.052Z,16.67
2019-01-16T10:38:32.784Z,14.03
2019-01-16T10:41:41.415Z,14.17
2019-01-16T10:44:50.052Z,14.30
2019-01-16T10:47:58.675Z,14.67
2019-01-16T10:51:07.409Z,14.57
2019-01-16T10:54:10.869Z,15.17
2019-01-16T10:57:19.549Z,16.03
2019-01-16T11:00:30.716Z,14.50
2019-01-16T11:03:31.111Z,16.10
2019-01-16T11:06:39.707Z,18.03
2019-01-16T11:09:48.477Z,15.53
2019-01-16T11:12:57.151Z,14.90
2019-01-16T11:16:05.813Z,16.70
2019-01-16T11:19:06.825Z,15.13
2019-01-16T11:22:15.530Z,14.40
2019-01-16T11:28:42.515Z,13.10
2019-01-16T11:31:38.341Z,11.87
2019-01-16T11:34:46.945Z,14.07
2019-01-16T11:37:46.267Z,12.40
2019-01-16T11:40:54.907Z,14.17
2019-01-16T11:44:03.485Z,13.47
2019-01-16T11:47:31.199Z,18.43
2019-01-16T11:50:39.798Z,13.80
2019-01-16T11:53:48.406Z,14.50
2019-01-16T11:56:57.011Z,15.00
2019-01-16T12:00:05.786Z,14.37
2019-01-16T12:03:14.384Z,12.10
2019-01-16T12:06:15.851Z,14.37
2019-01-16T12:12:33.500Z,11.27
2019-01-16T12:15:42.123Z,12.27
2019-01-16T12:18:50.716Z,12.70
2019-01-16T12:21:59.752Z,11.03
2019-01-16T12:25:08.352Z,10.67
2019-01-16T12:28:16.938Z,11.47
2019-01-16T12:31:25.468Z,12.93
2019-01-16T12:34:26.648Z,10.93
2019-01-16T12:37:35.271Z,11.67
2019-01-16T12:40:43.850Z,10.83
2019-01-16T12:43:45.541Z,9.87
2019-01-16T12:46:54.167Z,13.57
2019-01-16T12:50:01.622Z,12.27
2019-01-16T12:53:10.380Z,9.83
2019-01-16T12:56:18.996Z,10.80
2019-01-16T12:59:27.576Z,9.73
2019-01-16T13:02:35.050Z,11.63
2019-01-16T13:05:43.912Z,9.90
2019-01-16T13:08:52.530Z,11.23
2019-01-16T13:15:17.860Z,4.40
2019-01-16T13:18:26.377Z,3.10
2019-01-16T13:21:39.824Z,3.40
2019-01-16T13:24:39.722Z,3.17
2019-01-16T13:27:39.167Z,4.97
2019-01-16T13:30:47.727Z,4.83
2019-01-16T13:33:48.853Z,3.47
2019-01-16T13:36:50.608Z,3.23
2019-01-16T13:39:59.659Z,3.10
2019-01-16T13:43:08.285Z,3.80
2019-01-16T13:46:10.045Z,3.60
2019-01-16T13:49:17.000Z,3.33
2019-01-16T13:52:25.734Z,3.67
2019-01-16T13:55:30.392Z,3.03
2019-01-16T13:58:58.099Z,2.50
2019-01-16T14:01:48.735Z,3.37
2019-01-16T14:04:47.657Z,6.63
2019-01-16T14:07:56.324Z,3.87
2019-01-16T14:11:24.070Z,6.03
2019-01-16T14:17:12.792Z,2.57
2019-01-16T14:23:43.458Z,4.60
2019-01-16T14:26:51.999Z,4.30
2019-01-16T14:29:55.087Z,3.70
2019-01-16T14:33:03.623Z,2.50
2019-01-16T14:36:08.664Z,4.57
2019-01-16T14:39:13.952Z,3.00
2019-01-16T14:42:15.023Z,4.33
2019-01-16T14:45:23.932Z,2.90
2019-01-16T14:48:25.632Z,2.47
2019-01-16T14:51:34.195Z,4.23
2019-01-16T14:54:35.711Z,2.83
2019-01-16T14:57:44.263Z,2.67
2019-01-16T15:00:45.737Z,4.03
2019-01-16T15:03:54.535Z,3.20
2019-01-16T15:06:58.176Z,8.23
2019-01-16T15:10:06.776Z,4.43
2019-01-16T15:13:15.451Z,3.60
2019-01-16T15:16:24.115Z,3.30
2019-01-16T15:19:32.730Z,2.70
2019-01-16T15:22:39.643Z,2.43
2019-01-16T15:25:48.263Z,7.00
2019-01-16T15:28:56.894Z,5.13
2019-01-16T15:32:05.491Z,3.70
2019-01-16T15:35:14.077Z,4.07
2019-01-16T15:38:22.747Z,2.27
2019-01-16T15:41:31.583Z,3.90
2019-01-16T15:44:40.170Z,3.77
2019-01-16T15:47:48.779Z,2.57
2019-01-16T15:50:57.405Z,3.33
2019-01-16T15:53:59.699Z,4.50
2019-01-16T15:57:08.245Z,3.00
2019-01-16T16:00:16.793Z,4.40
2019-01-16T16:03:17.775Z,4.33
2019-01-16T16:06:26.341Z,4.10
2019-01-16T16:09:28.263Z,4.97
2019-01-16T16:12:36.773Z,3.63
2019-01-16T16:15:41.665Z,3.00
2019-01-16T16:18:50.212Z,2.47
2019-01-16T16:21:54.778Z,5.63
2019-01-16T16:25:03.383Z,3.13
2019-01-16T16:28:04.443Z,4.87
2019-01-16T16:31:13.029Z,3.97
2019-01-16T16:34:21.662Z,4.80
2019-01-16T16:37:31.041Z,3.17
2019-01-16T16:40:39.630Z,3.20
2019-01-16T16:43:40.891Z,5.47
2019-01-16T16:47:08.612Z,4.57
2019-01-16T16:50:30.606Z,4.80
2019-01-16T16:53:31.496Z,6.53
2019-01-16T16:56:40.103Z,5.07
2019-01-16T16:59:41.252Z,4.33
2019-01-16T17:02:49.822Z,6.10
2019-01-16T17:05:52.106Z,4.63
2019-01-16T17:09:01.142Z,6.13
2019-01-16T17:12:02.774Z,5.67
2019-01-16T17:15:11.320Z,3.67
2019-01-16T17:18:12.264Z,3.77
2019-01-16T17:21:20.784Z,6.47
2019-01-16T17:24:22.496Z,6.87
2019-01-16T17:27:31.068Z,7.43
2019-01-16T17:30:32.436Z,5.57
2019-01-16T17:33:41.008Z,7.33
2019-01-16T17:36:41.964Z,4.20
2019-01-16T17:42:56.516Z,6.87
2019-01-16T17:46:03.101Z,4.87
2019-01-16T17:49:03.960Z,5.13
2019-01-16T17:52:05.088Z,5.00
2019-01-16T17:55:13.610Z,6.33
2019-01-16T17:58:22.194Z,4.20
2019-01-16T18:01:25.334Z,4.93
2019-01-16T18:04:26.548Z,4.87
2019-01-16T18:07:35.187Z,7.63
2019-01-16T18:10:43.823Z,4.67
2019-01-16T18:13:48.100Z,4.87
2019-01-16T18:16:56.737Z,6.13
2019-01-16T18:20:05.480Z,6.63
2019-01-16T18:23:11.259Z,13.80
2019-01-16T18:26:12.704Z,7.87
2019-01-16T18:29:12.030Z,6.87
2019-01-16T18:32:20.702Z,7.20
2019-01-16T18:35:29.307Z,7.77
2019-01-16T18:38:37.917Z,9.53
2019-01-16T18:42:05.777Z,7.40
2019-01-16T18:45:13.550Z,9.87
2019-01-16T18:48:15.535Z,10.60
2019-01-16T18:51:17.528Z,9.30
2019-01-16T18:57:48.815Z,6.80
2019-01-16T19:00:50.518Z,6.70
2019-01-16T19:03:59.271Z,7.00
2019-01-16T19:07:26.978Z,6.80
2019-01-16T19:10:28.741Z,6.03
2019-01-16T19:13:37.431Z,4.93
2019-01-16T19:16:40.202Z,7.87
2019-01-16T19:19:48.955Z,5.03
2019-01-16T19:23:09.188Z,7.60
2019-01-16T19:26:10.355Z,5.23
2019-01-16T19:29:18.925Z,6.27
2019-01-16T19:32:26.737Z,5.00
2019-01-16T19:35:35.309Z,5.03
2019-01-16T19:38:37.870Z,4.70
2019-01-16T19:41:46.487Z,5.27
2019-01-16T19:44:47.588Z,6.77
2019-01-16T19:47:56.160Z,3.33
2019-01-16T19:51:01.041Z,4.27
2019-01-16T19:54:09.884Z,5.10
2019-01-16T19:57:18.921Z,5.60
2019-01-16T20:00:33.672Z,6.37
2019-01-16T20:03:39.477Z,5.80
2019-01-16T20:06:38.033Z,5.63
2019-01-16T20:09:46.745Z,4.07
2019-01-16T20:13:07.930Z,6.57
2019-01-16T20:15:58.165Z,6.07
2019-01-16T20:19:06.812Z,7.20
2019-01-16T20:22:15.391Z,6.03
2019-01-16T20:25:24.991Z,7.90
2019-01-16T20:28:33.641Z,6.43
2019-01-16T20:31:34.895Z,8.70
2019-01-16T20:34:28.275Z,8.30
2019-01-16T20:37:37.085Z,5.07
2019-01-16T20:40:45.834Z,7.70
2019-01-16T20:43:54.515Z,6.83
2019-01-16T20:47:15.630Z,6.57
2019-01-16T20:50:17.040Z,4.80
2019-01-16T20:53:25.672Z,6.43
2019-01-16T20:56:27.356Z,5.57
2019-01-16T20:59:35.897Z,6.47
2019-01-16T21:02:37.059Z,5.07
2019-01-16T21:05:45.926Z,8.33
2019-01-16T21:08:35.930Z,5.10
2019-01-16T21:11:44.772Z,3.47
2019-01-16T21:14:49.292Z,4.07
2019-01-16T21:17:47.410Z,4.57
2019-01-16T21:23:52.334Z,7.77
2019-01-16T21:27:00.942Z,5.40
2019-01-16T21:30:04.288Z,5.27
2019-01-16T21:33:13.404Z,5.93
2019-01-16T21:36:09.340Z,3.50
2019-01-16T21:39:11.802Z,2.93
2019-01-16T21:42:21.184Z,5.70
2019-01-16T21:45:25.734Z,3.73
2019-01-16T21:48:34.894Z,3.40
2019-01-16T21:57:32.489Z,3.90
2019-01-16T22:03:47.404Z,5.13
2019-01-16T22:06:52.866Z,4.87
2019-01-16T22:09:56.308Z,2.80
2019-01-16T22:13:05.298Z,3.10
2019-01-16T22:16:15.486Z,6.87
2019-01-16T22:19:24.096Z,5.00
2019-01-16T22:22:32.869Z,3.37
2019-01-16T22:26:00.242Z,5.70
2019-01-16T22:28:57.120Z,3.97
2019-01-16T22:32:06.088Z,5.80
2019-01-16T22:35:06.941Z,5.20
2019-01-16T22:38:07.234Z,6.43
2019-01-16T22:41:08.548Z,3.90
2019-01-16T22:44:17.425Z,5.10
2019-01-16T22:47:20.612Z,4.23
2019-01-16T22:50:20.744Z,4.77
2019-01-16T22:53:26.146Z,4.70
2019-01-16T22:56:35.472Z,6.27
2019-01-16T22:59:37.066Z,7.33
2019-01-16T23:05:41.522Z,5.37
2019-01-16T23:08:50.158Z,6.33
2019-01-16T23:11:58.776Z,5.43
2019-01-16T23:15:00.285Z,6.07
2019-01-16T23:18:01.836Z,5.90
2019-01-16T23:21:03.607Z,5.83
2019-01-16T23:24:12.213Z,8.07
2019-01-16T23:27:18.655Z,9.37
2019-01-16T23:30:18.278Z,5.60
2019-01-16T23:33:21.967Z,6.10
2019-01-16T23:36:30.593Z,7.37
2019-01-16T23:39:24.479Z,5.50
2019-01-16T23:42:33.080Z,4.80
2019-01-16T23:45:36.937Z,11.03
2019-01-16T23:48:45.530Z,6.30
2019-01-16T23:51:46.817Z,6.17
2019-01-16T23:54:55.393Z,11.27
2019-01-16T23:57:53.363Z,11.40
